sensor_id;sensor_type;location;lat;lon;timestamp;P1;durP1;ratioP1;P2;durP2;ratioP2
11957;SDS011;6039;52.576;13.348;2024-03-22T00:04:52;12.93;;;8.07;;
11957;SDS011;6039;52.576;13.348;2024-03-22T00:09:53;12.67;;;7.63;;
11957;SDS011;6039;52.576;13.348;2024-03-22T00:14:55;15.07;;;8.27;;
11957;SDS011;6039;52.576;13.348;2024-03-22T00:19:59;11.63;;;7.70;;
11957;SDS011;6039;52.576;13.348;2024-03-22T00:25:01;12.10;;;7.73;;
11957;SDS011;6039;52.576;13.348;2024-03-22T00:30:03;13.97;;;8.57;;
11957;SDS011;6039;52.576;13.348;2024-03-22T00:35:08;13.27;;;8.00;;
11957;SDS011;6039;52.576;13.348;2024-03-22T00:40:10;13.17;;;7.93;;
11957;SDS011;6039;52.576;13.348;2024-03-22T00:45:12;14.97;;;8.37;;
11957;SDS011;6039;52.576;13.348;2024-03-22T00:50:16;14.17;;;8.90;;
11957;SDS011;6039;52.576;13.348;2024-03-22T00:55:18;13.30;;;7.97;;
11957;SDS011;6039;52.576;13.348;2024-03-22T01:00:20;12.03;;;7.40;;
11957;SDS011;6039;52.576;13.348;2024-03-22T01:05:24;13.67;;;8.07;;
11957;SDS011;6039;52.576;13.348;2024-03-22T01:10:26;12.23;;;7.87;;
11957;SDS011;6039;52.576;13.348;2024-03-22T01:15:27;13.70;;;8.10;;
11957;SDS011;6039;52.576;13.348;2024-03-22T01:20:31;13.97;;;8.80;;
11957;SDS011;6039;52.576;13.348;2024-03-22T01:25:33;13.90;;;8.57;;
11957;SDS011;6039;52.576;13.348;2024-03-22T01:30:34;15.20;;;9.30;;
11957;SDS011;6039;52.576;13.348;2024-03-22T01:35:38;14.87;;;8.93;;
11957;SDS011;6039;52.576;13.348;2024-03-22T01:40:40;14.70;;;8.33;;
11957;SDS011;6039;52.576;13.348;2024-03-22T01:45:41;14.03;;;8.60;;
11957;SDS011;6039;52.576;13.348;2024-03-22T01:50:45;13.93;;;8.13;;
11957;SDS011;6039;52.576;13.348;2024-03-22T01:55:46;14.33;;;8.60;;
11957;SDS011;6039;52.576;13.348;2024-03-22T02:00:48;14.03;;;8.27;;
11957;SDS011;6039;52.576;13.348;2024-03-22T02:05:52;16.47;;;9.00;;
11957;SDS011;6039;52.576;13.348;2024-03-22T02:10:54;14.27;;;8.23;;
11957;SDS011;6039;52.576;13.348;2024-03-22T02:15:55;15.63;;;8.80;;
11957;SDS011;6039;52.576;13.348;2024-03-22T02:20:59;14.73;;;8.23;;
11957;SDS011;6039;52.576;13.348;2024-03-22T02:26:04;17.80;;;9.43;;
11957;SDS011;6039;52.576;13.348;2024-03-22T02:31:06;12.33;;;7.50;;
11957;SDS011;6039;52.576;13.348;2024-03-22T02:36:07;13.27;;;8.43;;
11957;SDS011;6039;52.576;13.348;2024-03-22T02:41:11;15.03;;;8.83;;
11957;SDS011;6039;52.576;13.348;2024-03-22T02:46:12;16.03;;;8.73;;
11957;SDS011;6039;52.576;13.348;2024-03-22T02:51:14;18.10;;;9.23;;
11957;SDS011;6039;52.576;13.348;2024-03-22T02:56:18;16.00;;;8.83;;
11957;SDS011;6039;52.576;13.348;2024-03-22T03:01:19;13.43;;;7.77;;
11957;SDS011;6039;52.576;13.348;2024-03-22T03:06:21;14.00;;;8.20;;
11957;SDS011;6039;52.576;13.348;2024-03-22T03:11:25;13.13;;;7.83;;
11957;SDS011;6039;52.576;13.348;2024-03-22T03:16:26;16.73;;;8.77;;
11957;SDS011;6039;52.576;13.348;2024-03-22T03:21:27;15.00;;;8.23;;
11957;SDS011;6039;52.576;13.348;2024-03-22T03:26:31;15.27;;;8.23;;
11957;SDS011;6039;52.576;13.348;2024-03-22T03:31:33;15.43;;;8.17;;
11957;SDS011;6039;52.576;13.348;2024-03-22T03:36:34;14.63;;;8.07;;
11957;SDS011;6039;52.576;13.348;2024-03-22T03:41:38;13.60;;;7.40;;
11957;SDS011;6039;52.576;13.348;2024-03-22T03:46:39;15.23;;;7.90;;
11957;SDS011;6039;52.576;13.348;2024-03-22T03:51:41;13.53;;;7.87;;
11957;SDS011;6039;52.576;13.348;2024-03-22T03:56:45;12.67;;;7.33;;
11957;SDS011;6039;52.576;13.348;2024-03-22T04:01:46;14.80;;;8.30;;
11957;SDS011;6039;52.576;13.348;2024-03-22T04:06:47;19.67;;;8.80;;
11957;SDS011;6039;52.576;13.348;2024-03-22T04:11:51;14.20;;;7.97;;
11957;SDS011;6039;52.576;13.348;2024-03-22T04:16:53;14.97;;;7.47;;
11957;SDS011;6039;52.576;13.348;2024-03-22T04:21:54;14.10;;;7.53;;
11957;SDS011;6039;52.576;13.348;2024-03-22T04:26:58;14.57;;;7.60;;
11957;SDS011;6039;52.576;13.348;2024-03-22T04:32:00;13.13;;;7.20;;
11957;SDS011;6039;52.576;13.348;2024-03-22T04:37:01;15.93;;;7.87;;
11957;SDS011;6039;52.576;13.348;2024-03-22T04:42:05;13.43;;;7.17;;
11957;SDS011;6039;52.576;13.348;2024-03-22T04:47:07;12.37;;;7.60;;
11957;SDS011;6039;52.576;13.348;2024-03-22T04:52:08;11.87;;;6.70;;
11957;SDS011;6039;52.576;13.348;2024-03-22T04:57:12;13.23;;;7.80;;
11957;SDS011;6039;52.576;13.348;2024-03-22T05:02:14;14.83;;;7.93;;
11957;SDS011;6039;52.576;13.348;2024-03-22T05:07:15;11.10;;;7.03;;
11957;SDS011;6039;52.576;13.348;2024-03-22T05:12:19;14.83;;;7.90;;
11957;SDS011;6039;52.576;13.348;2024-03-22T05:17:21;12.37;;;7.47;;
11957;SDS011;6039;52.576;13.348;2024-03-22T05:22:22;14.93;;;7.57;;
11957;SDS011;6039;52.576;13.348;2024-03-22T05:27:26;13.00;;;6.50;;
11957;SDS011;6039;52.576;13.348;2024-03-22T05:32:28;12.37;;;7.03;;
11957;SDS011;6039;52.576;13.348;2024-03-22T05:37:29;13.33;;;7.53;;
11957;SDS011;6039;52.576;13.348;2024-03-22T05:42:33;13.00;;;7.13;;
11957;SDS011;6039;52.576;13.348;2024-03-22T05:47:34;13.30;;;7.70;;
11957;SDS011;6039;52.576;13.348;2024-03-22T05:52:36;12.40;;;7.60;;
11957;SDS011;6039;52.576;13.348;2024-03-22T05:57:40;12.63;;;7.10;;
11957;SDS011;6039;52.576;13.348;2024-03-22T06:02:41;11.20;;;6.93;;
11957;SDS011;6039;52.576;13.348;2024-03-22T06:07:43;15.23;;;8.07;;
11957;SDS011;6039;52.576;13.348;2024-03-22T06:12:47;14.47;;;7.57;;
11957;SDS011;6039;52.576;13.348;2024-03-22T06:17:48;12.40;;;7.10;;
11957;SDS011;6039;52.576;13.348;2024-03-22T06:22:50;10.63;;;6.97;;
11957;SDS011;6039;52.576;13.348;2024-03-22T06:27:54;14.20;;;7.53;;
11957;SDS011;6039;52.576;13.348;2024-03-22T06:32:56;14.77;;;7.47;;
11957;SDS011;6039;52.576;13.348;2024-03-22T06:37:57;13.93;;;8.27;;
11957;SDS011;6039;52.576;13.348;2024-03-22T06:43:01;14.03;;;7.83;;
11957;SDS011;6039;52.576;13.348;2024-03-22T06:48:03;13.53;;;7.73;;
11957;SDS011;6039;52.576;13.348;2024-03-22T06:53:05;13.87;;;8.50;;
11957;SDS011;6039;52.576;13.348;2024-03-22T06:58:09;15.93;;;8.23;;
11957;SDS011;6039;52.576;13.348;2024-03-22T07:03:10;16.17;;;8.73;;
11957;SDS011;6039;52.576;13.348;2024-03-22T07:08:11;15.53;;;8.53;;
11957;SDS011;6039;52.576;13.348;2024-03-22T07:13:15;17.47;;;8.50;;
11957;SDS011;6039;52.576;13.348;2024-03-22T07:18:17;17.63;;;9.20;;
11957;SDS011;6039;52.576;13.348;2024-03-22T07:23:18;16.57;;;8.97;;
11957;SDS011;6039;52.576;13.348;2024-03-22T07:28:22;16.20;;;8.83;;
11957;SDS011;6039;52.576;13.348;2024-03-22T07:33:24;17.17;;;9.57;;
11957;SDS011;6039;52.576;13.348;2024-03-22T07:38:27;14.70;;;8.80;;
11957;SDS011;6039;52.576;13.348;2024-03-22T07:43:31;14.80;;;8.67;;
11957;SDS011;6039;52.576;13.348;2024-03-22T07:48:33;19.17;;;9.40;;
11957;SDS011;6039;52.576;13.348;2024-03-22T07:53:34;16.43;;;8.90;;
11957;SDS011;6039;52.576;13.348;2024-03-22T07:58:38;19.53;;;10.40;;
11957;SDS011;6039;52.576;13.348;2024-03-22T08:03:39;18.77;;;10.13;;
11957;SDS011;6039;52.576;13.348;2024-03-22T08:08:41;19.17;;;9.60;;
11957;SDS011;6039;52.576;13.348;2024-03-22T08:13:45;17.90;;;10.33;;
11957;SDS011;6039;52.576;13.348;2024-03-22T08:18:46;19.37;;;10.53;;
11957;SDS011;6039;52.576;13.348;2024-03-22T08:23:48;17.50;;;10.00;;
11957;SDS011;6039;52.576;13.348;2024-03-22T08:28:52;17.13;;;9.53;;
11957;SDS011;6039;52.576;13.348;2024-03-22T08:33:53;17.40;;;9.97;;
11957;SDS011;6039;52.576;13.348;2024-03-22T08:38:56;21.00;;;10.70;;
11957;SDS011;6039;52.576;13.348;2024-03-22T08:44:00;20.37;;;10.27;;
11957;SDS011;6039;52.576;13.348;2024-03-22T08:49:01;18.33;;;10.43;;
11957;SDS011;6039;52.576;13.348;2024-03-22T08:54:03;18.60;;;9.83;;
11957;SDS011;6039;52.576;13.348;2024-03-22T08:59:07;17.50;;;10.27;;
11957;SDS011;6039;52.576;13.348;2024-03-22T09:04:08;16.73;;;9.90;;
11957;SDS011;6039;52.576;13.348;2024-03-22T09:09:10;19.70;;;10.77;;
11957;SDS011;6039;52.576;13.348;2024-03-22T09:14:14;20.13;;;10.70;;
11957;SDS011;6039;52.576;13.348;2024-03-22T09:19:16;17.83;;;10.63;;
11957;SDS011;6039;52.576;13.348;2024-03-22T09:24:17;16.67;;;9.90;;
11957;SDS011;6039;52.576;13.348;2024-03-22T09:29:21;17.90;;;10.20;;
11957;SDS011;6039;52.576;13.348;2024-03-22T09:34:23;18.27;;;10.50;;
11957;SDS011;6039;52.576;13.348;2024-03-22T09:39:24;17.87;;;9.90;;
11957;SDS011;6039;52.576;13.348;2024-03-22T09:44:28;19.20;;;10.00;;
11957;SDS011;6039;52.576;13.348;2024-03-22T09:49:30;19.23;;;10.60;;
11957;SDS011;6039;52.576;13.348;2024-03-22T09:54:31;17.10;;;10.10;;
11957;SDS011;6039;52.576;13.348;2024-03-22T09:59:36;20.97;;;11.03;;
11957;SDS011;6039;52.576;13.348;2024-03-22T10:04:38;18.23;;;10.17;;
11957;SDS011;6039;52.576;13.348;2024-03-22T10:09:40;17.47;;;9.73;;
11957;SDS011;6039;52.576;13.348;2024-03-22T10:14:45;18.80;;;9.70;;
11957;SDS011;6039;52.576;13.348;2024-03-22T10:19:48;16.33;;;9.77;;
11957;SDS011;6039;52.576;13.348;2024-03-22T10:24:50;19.93;;;9.93;;
11957;SDS011;6039;52.576;13.348;2024-03-22T10:29:54;15.43;;;9.10;;
11957;SDS011;6039;52.576;13.348;2024-03-22T10:34:56;18.20;;;10.07;;
11957;SDS011;6039;52.576;13.348;2024-03-22T10:39:58;15.23;;;9.57;;
11957;SDS011;6039;52.576;13.348;2024-03-22T10:45:03;18.90;;;9.97;;
11957;SDS011;6039;52.576;13.348;2024-03-22T10:50:06;16.77;;;9.30;;
11957;SDS011;6039;52.576;13.348;2024-03-22T10:55:10;18.33;;;9.67;;
11957;SDS011;6039;52.576;13.348;2024-03-22T11:00:16;14.57;;;8.70;;
11957;SDS011;6039;52.576;13.348;2024-03-22T11:05:28;14.10;;;8.13;;
11957;SDS011;6039;52.576;13.348;2024-03-22T11:10:30;14.47;;;9.10;;
11957;SDS011;6039;52.576;13.348;2024-03-22T11:15:36;16.03;;;8.80;;
11957;SDS011;6039;52.576;13.348;2024-03-22T11:20:37;13.17;;;8.90;;
11957;SDS011;6039;52.576;13.348;2024-03-22T11:25:39;14.13;;;8.67;;
11957;SDS011;6039;52.576;13.348;2024-03-22T11:30:43;16.23;;;8.90;;
11957;SDS011;6039;52.576;13.348;2024-03-22T11:35:45;14.60;;;8.70;;
11957;SDS011;6039;52.576;13.348;2024-03-22T11:40:46;16.73;;;9.40;;
11957;SDS011;6039;52.576;13.348;2024-03-22T11:45:51;15.57;;;8.73;;
11957;SDS011;6039;52.576;13.348;2024-03-22T11:50:52;14.90;;;8.77;;
11957;SDS011;6039;52.576;13.348;2024-03-22T11:55:54;17.77;;;8.93;;
11957;SDS011;6039;52.576;13.348;2024-03-22T12:00:58;16.20;;;9.43;;
11957;SDS011;6039;52.576;13.348;2024-03-22T12:06:00;16.27;;;9.20;;
11957;SDS011;6039;52.576;13.348;2024-03-22T12:11:01;15.70;;;9.33;;
11957;SDS011;6039;52.576;13.348;2024-03-22T12:16:06;16.40;;;9.27;;
11957;SDS011;6039;52.576;13.348;2024-03-22T12:21:07;19.60;;;9.87;;
11957;SDS011;6039;52.576;13.348;2024-03-22T12:26:08;16.73;;;9.57;;
11957;SDS011;6039;52.576;13.348;2024-03-22T12:31:12;16.07;;;9.63;;
11957;SDS011;6039;52.576;13.348;2024-03-22T12:36:17;17.97;;;10.30;;
11957;SDS011;6039;52.576;13.348;2024-03-22T12:41:18;20.53;;;10.83;;
11957;SDS011;6039;52.576;13.348;2024-03-22T12:46:22;20.13;;;10.50;;
11957;SDS011;6039;52.576;13.348;2024-03-22T12:51:23;18.70;;;10.33;;
11957;SDS011;6039;52.576;13.348;2024-03-22T12:56:25;20.13;;;10.83;;
11957;SDS011;6039;52.576;13.348;2024-03-22T13:01:29;17.53;;;9.47;;
11957;SDS011;6039;52.576;13.348;2024-03-22T13:06:30;16.37;;;9.53;;
11957;SDS011;6039;52.576;13.348;2024-03-22T13:11:32;17.13;;;9.77;;
11957;SDS011;6039;52.576;13.348;2024-03-22T13:16:36;18.53;;;9.50;;
11957;SDS011;6039;52.576;13.348;2024-03-22T13:21:37;19.60;;;10.53;;
11957;SDS011;6039;52.576;13.348;2024-03-22T13:26:39;18.90;;;10.30;;
11957;SDS011;6039;52.576;13.348;2024-03-22T13:31:43;18.30;;;9.47;;
11957;SDS011;6039;52.576;13.348;2024-03-22T13:36:44;16.83;;;9.30;;
11957;SDS011;6039;52.576;13.348;2024-03-22T13:41:45;17.47;;;9.73;;
11957;SDS011;6039;52.576;13.348;2024-03-22T13:46:50;17.10;;;8.90;;
11957;SDS011;6039;52.576;13.348;2024-03-22T13:51:51;18.70;;;9.97;;
11957;SDS011;6039;52.576;13.348;2024-03-22T13:56:53;15.57;;;8.37;;
11957;SDS011;6039;52.576;13.348;2024-03-22T14:01:57;17.07;;;8.90;;
11957;SDS011;6039;52.576;13.348;2024-03-22T14:06:58;16.03;;;8.30;;
11957;SDS011;6039;52.576;13.348;2024-03-22T14:12:00;18.80;;;8.23;;
11957;SDS011;6039;52.576;13.348;2024-03-22T14:17:04;12.87;;;7.73;;
11957;SDS011;6039;52.576;13.348;2024-03-22T14:22:05;12.07;;;6.83;;
11957;SDS011;6039;52.576;13.348;2024-03-22T14:27:06;14.03;;;7.80;;
11957;SDS011;6039;52.576;13.348;2024-03-22T14:32:11;14.13;;;6.77;;
11957;SDS011;6039;52.576;13.348;2024-03-22T14:37:12;12.33;;;6.97;;
11957;SDS011;6039;52.576;13.348;2024-03-22T14:42:13;13.20;;;6.83;;
11957;SDS011;6039;52.576;13.348;2024-03-22T14:47:17;12.70;;;6.97;;
11957;SDS011;6039;52.576;13.348;2024-03-22T14:52:19;14.47;;;7.87;;
11957;SDS011;6039;52.576;13.348;2024-03-22T14:57:20;13.97;;;8.13;;
11957;SDS011;6039;52.576;13.348;2024-03-22T15:02:25;14.87;;;8.30;;
11957;SDS011;6039;52.576;13.348;2024-03-22T15:07:26;15.23;;;8.20;;
11957;SDS011;6039;52.576;13.348;2024-03-22T15:12:27;17.07;;;9.07;;
11957;SDS011;6039;52.576;13.348;2024-03-22T15:17:31;14.23;;;8.30;;
11957;SDS011;6039;52.576;13.348;2024-03-22T15:22:33;20.33;;;9.17;;
11957;SDS011;6039;52.576;13.348;2024-03-22T15:27:34;16.93;;;8.43;;
11957;SDS011;6039;52.576;13.348;2024-03-22T15:32:38;18.97;;;9.00;;
11957;SDS011;6039;52.576;13.348;2024-03-22T15:37:39;19.37;;;9.77;;
11957;SDS011;6039;52.576;13.348;2024-03-22T15:42:41;15.70;;;9.00;;
11957;SDS011;6039;52.576;13.348;2024-03-22T15:47:45;16.50;;;9.37;;
11957;SDS011;6039;52.576;13.348;2024-03-22T15:52:47;16.80;;;9.30;;
11957;SDS011;6039;52.576;13.348;2024-03-22T15:57:48;23.40;;;9.77;;
11957;SDS011;6039;52.576;13.348;2024-03-22T16:02:52;18.87;;;9.00;;
11957;SDS011;6039;52.576;13.348;2024-03-22T16:07:53;17.80;;;9.67;;
11957;SDS011;6039;52.576;13.348;2024-03-22T16:12:55;18.13;;;9.60;;
11957;SDS011;6039;52.576;13.348;2024-03-22T16:17:59;17.83;;;10.30;;
11957;SDS011;6039;52.576;13.348;2024-03-22T16:23:00;17.90;;;10.27;;
11957;SDS011;6039;52.576;13.348;2024-03-22T16:28:02;19.80;;;10.53;;
11957;SDS011;6039;52.576;13.348;2024-03-22T16:33:07;20.87;;;9.93;;
11957;SDS011;6039;52.576;13.348;2024-03-22T16:38:09;19.47;;;10.40;;
11957;SDS011;6039;52.576;13.348;2024-03-22T16:43:10;19.27;;;10.57;;
11957;SDS011;6039;52.576;13.348;2024-03-22T16:48:14;18.80;;;10.13;;
11957;SDS011;6039;52.576;13.348;2024-03-22T16:53:16;17.60;;;10.23;;
11957;SDS011;6039;52.576;13.348;2024-03-22T16:58:17;19.37;;;10.30;;
11957;SDS011;6039;52.576;13.348;2024-03-22T17:03:21;19.13;;;9.83;;
11957;SDS011;6039;52.576;13.348;2024-03-22T17:08:23;17.20;;;9.90;;
11957;SDS011;6039;52.576;13.348;2024-03-22T17:13:24;17.30;;;10.23;;
11957;SDS011;6039;52.576;13.348;2024-03-22T17:18:28;22.30;;;11.37;;
11957;SDS011;6039;52.576;13.348;2024-03-22T17:23:30;17.97;;;10.67;;
11957;SDS011;6039;52.576;13.348;2024-03-22T17:28:31;18.57;;;11.20;;
11957;SDS011;6039;52.576;13.348;2024-03-22T17:33:35;17.83;;;10.67;;
11957;SDS011;6039;52.576;13.348;2024-03-22T17:38:36;20.17;;;11.23;;
11957;SDS011;6039;52.576;13.348;2024-03-22T17:43:38;22.33;;;12.00;;
11957;SDS011;6039;52.576;13.348;2024-03-22T17:48:42;20.40;;;11.37;;
11957;SDS011;6039;52.576;13.348;2024-03-22T17:53:43;18.13;;;10.57;;
11957;SDS011;6039;52.576;13.348;2024-03-22T17:58:45;19.93;;;11.43;;
11957;SDS011;6039;52.576;13.348;2024-03-22T18:03:49;19.73;;;11.60;;
11957;SDS011;6039;52.576;13.348;2024-03-22T18:08:51;20.77;;;11.83;;
11957;SDS011;6039;52.576;13.348;2024-03-22T18:13:52;22.93;;;12.33;;
11957;SDS011;6039;52.576;13.348;2024-03-22T18:18:56;20.47;;;11.80;;
11957;SDS011;6039;52.576;13.348;2024-03-22T18:23:57;20.00;;;12.20;;
11957;SDS011;6039;52.576;13.348;2024-03-22T18:28:59;22.00;;;12.27;;
11957;SDS011;6039;52.576;13.348;2024-03-22T18:34:03;21.27;;;11.77;;
11957;SDS011;6039;52.576;13.348;2024-03-22T18:39:05;21.77;;;12.67;;
11957;SDS011;6039;52.576;13.348;2024-03-22T18:44:07;21.43;;;12.40;;
11957;SDS011;6039;52.576;13.348;2024-03-22T18:49:11;19.93;;;12.17;;
11957;SDS011;6039;52.576;13.348;2024-03-22T18:54:12;22.27;;;13.23;;
11957;SDS011;6039;52.576;13.348;2024-03-22T18:59:13;24.97;;;13.70;;
11957;SDS011;6039;52.576;13.348;2024-03-22T19:04:18;20.03;;;11.73;;
11957;SDS011;6039;52.576;13.348;2024-03-22T19:09:19;21.57;;;12.53;;
11957;SDS011;6039;52.576;13.348;2024-03-22T19:14:20;21.10;;;12.90;;
11957;SDS011;6039;52.576;13.348;2024-03-22T19:19:24;23.53;;;13.30;;
11957;SDS011;6039;52.576;13.348;2024-03-22T19:24:26;19.17;;;12.37;;
11957;SDS011;6039;52.576;13.348;2024-03-22T19:29:28;21.50;;;12.83;;
11957;SDS011;6039;52.576;13.348;2024-03-22T19:34:32;24.13;;;13.10;;
11957;SDS011;6039;52.576;13.348;2024-03-22T19:39:33;24.73;;;13.83;;
11957;SDS011;6039;52.576;13.348;2024-03-22T19:44:35;25.10;;;13.77;;
11957;SDS011;6039;52.576;13.348;2024-03-22T19:49:40;22.67;;;13.53;;
11957;SDS011;6039;52.576;13.348;2024-03-22T19:54:41;25.27;;;14.93;;
11957;SDS011;6039;52.576;13.348;2024-03-22T19:59:43;26.30;;;15.13;;
11957;SDS011;6039;52.576;13.348;2024-03-22T20:04:47;21.53;;;13.80;;
11957;SDS011;6039;52.576;13.348;2024-03-22T20:09:48;27.27;;;15.17;;
11957;SDS011;6039;52.576;13.348;2024-03-22T20:14:49;25.83;;;14.73;;
11957;SDS011;6039;52.576;13.348;2024-03-22T20:19:53;29.00;;;15.40;;
11957;SDS011;6039;52.576;13.348;2024-03-22T20:24:55;22.90;;;13.93;;
11957;SDS011;6039;52.576;13.348;2024-03-22T20:29:58;25.67;;;14.87;;
11957;SDS011;6039;52.576;13.348;2024-03-22T20:35:02;22.90;;;13.60;;
